Nicola Silvestri

Jefe de ojeadores - Fiorentina
8 Ene 2030
Martes
Continuar

Personalidad

Adaptabilidad (6) Ambición (12) Controversia (15) Lealtad (20) Presión (4) Profesionalismo (11) Deportividad (17) Temperamento (18)

Perfil

Estilo de dirección Democrático
Licencia Continental A
Determinación 12
Gestión de personas 14
Motivación 13
Disciplina 13
Satisfacción laboral
100%
Fatiga
0%
Cargo Jefe de ojeadores
Salario 114.4K p/s
Contrato 14.03.2030

Rendimiento

Comportamiento Bueno
Efectividad del entrenamiento
51%
Desarrollo de jugadores
65%
Prevención de lesiones
75%
Implementación táctica
45%

Eventos recientes

Negociación de contrato iniciada ahora
Evaluó a un jugador ahora
Asistió a una reunión de captación ahora
Recomendó un objetivo de fichaje ahora
Recomendó un objetivo de fichaje ahora
Recomendó un objetivo de fichaje ahora
Negociación de contrato iniciada 7d atrás
Evaluó a un jugador 7d atrás

Actualmente siguiendo

161
Jugador Club Estado Habilidad Confianza Observado Última observación Último voto
Djibril Coulibaly Paris FC Activo 126 / 124 40% 1 07.01.2030 -
Alessio Baralla Lecce Activo 111 / 123 40% 1 07.01.2030 -
Alex Verón San Lorenzo Activo 118 / 126 40% 1 07.01.2030 -
Vincenzo Damiano Empoli Activo 119 / 116 40% 2 06.01.2030 -
Mahan Beheshti Saba Activo 105 / 133 40% 1 06.01.2030 -
Sadriddin Hasanov Bunyodkor Activo 125 / 111 40% 1 06.01.2030 -
Gabriel Mec Ceará Activo 130 / 131 40% 1 05.01.2030 -
Nenad Damjanoski Koper Activo 109 / 119 40% 1 05.01.2030 -
Mateusz Kochalski Qarabag Activo 145 / 152 40% 2 02.01.2030 -
Igor Tyjon Blackburn Rovers Activo 128 / 132 40% 3 02.01.2030 -
Jacopo Seghetti Genoa Activo 140 / 148 40% 1 02.01.2030 -
Mathys Tel Luton Town Activo 163 / 161 40% 1 02.01.2030 -
Brian Madjo Rotherham United Activo 123 / 128 40% 1 02.01.2030 -
Antonio Prisco Benevento Activo 129 / 131 79% 1 01.01.2030 Aprobar
Federico Romeo Ternana Activo 134 / 134 30% 1 / 1m 12.12.2029 -
Marco Pagliari Ternana Activo 127 / 127 30% 1 / 1m 31.10.2029 -
Antonio Casas Venezia Activo 134 / 134 30% 1 / 1m 31.10.2029 -
Simone Tarolli Catanzaro Activo 85 / 88 30% 1 / 1m 31.10.2029 -
David Nieland Ospitaletto Activo 115 / 115 42% 1 / 1m 19.09.2029 -
Sheikh Sibi Virtus Verona Activo 118 / 118 30% 1 / 1m 19.09.2029 -
Jake Evans Huddersfield Town Activo 122 / 135 40% 4 31.08.2029 -
Honest Ahanor Udinese Activo 139 / 145 40% 3 31.08.2029 -
Keilan Quinn Aston Villa Activo 120 / 127 40% 1 31.08.2029 -
Reuben Reid Charlton Athletic Activo 109 / 118 40% 1 30.08.2029 -
Harry Gray Leeds United Activo 141 / 151 40% 1 30.08.2029 -
Mateus Mané Liverpool Activo 148 / 153 40% 2 28.08.2029 -
Haine Eames Melbourne City Activo 121 / 139 40% 1 28.08.2029 -
Luca Raffaelli Cesar Vallejo Activo 117 / 111 40% 1 28.08.2029 -
Nicolò Rovella Lazio Activo 156 / 163 40% 1 27.08.2029 -
David Møller Wolfe Wolverhampton Activo 152 / 153 40% 1 27.08.2029 -
Johan Manzambi Stoke City Activo 149 / 158 40% 1 27.08.2029 -
Tomás Parmo River Plate Activo 129 / 142 40% 1 25.08.2029 -
Celías Ingenthron River Plate Activo 127 / 127 40% 1 23.08.2029 -
Kerim Alajbegović Juve Stabia Activo 139 / 154 40% 1 23.08.2029 -
Love Arrhov St. Pauli Activo 135 / 144 40% 1 23.08.2029 -
Nathaniel Brown Bayern Munich Activo 158 / 152 40% 1 21.08.2029 -
Adrien Truffert Bournemouth Activo 162 / 158 40% 1 21.08.2029 -
Louis Page Hull City Activo 137 / 141 40% 1 21.08.2029 -
Ebu Bekir İş Eintracht Frankfurt Activo 125 / 133 40% 1 21.08.2029 -
Elia Caprile Cagliari Activo 154 / 160 40% 1 13.08.2029 -
Giovanni Baroni River Plate Activo 114 / 110 40% 1 13.08.2029 -
Adrian Lahdo Lecce Activo 142 / 144 40% 1 13.08.2029 -
Saba Kharebashvili Besiktas Activo 137 / 149 40% 1 23.07.2029 -
Mateus Mide Porto Activo 116 / 129 40% 1 16.07.2029 -
Nikola Moro Juve Stabia Activo 139 / 150 79% 1 02.07.2029 Aprobar
Seb Ferdinand Cambridge United Activo 132 / 134 40% 1 12.06.2029 -
Ryan Longman Fleetwood Town Activo 131 / 128 40% 1 12.06.2029 -
Alejandro Garnacho Burnley Activo 160 / 162 40% 1 12.06.2029 -
Lorenzo Colombo Genoa Activo 149 / 149 40% 1 07.06.2029 -
Tyreece Campbell Charlton Athletic Activo 129 / 130 40% 1 07.06.2029 -
Nicolás González Juventus Activo 160 / 167 40% 1 07.06.2029 -
Sebastiano Desplanches Everton Activo 145 / 154 40% 2 03.06.2029 -
Caoimhin Kelleher Brentford Activo 162 / 155 40% 2 03.06.2029 -
Cundo Bournemouth Activo 140 / 156 40% 1 01.06.2029 -
Konstantinos Karetsas Borussia Dortmund Activo 135 / 139 40% 1 01.06.2029 -
Quilindschy Hartman Burnley Activo 150 / 155 40% 2 22.01.2029 -
Neco Williams Nottingham Forest Activo 150 / 156 40% 1 22.01.2029 -
Mads Hermansen West Ham United Activo 146 / 154 40% 3 15.01.2029 -
Tommaso Martinelli Torino Activo 141 / 147 40% 1 15.01.2029 -
Jake O'Brien Everton Activo 158 / 144 40% 2 08.01.2029 -
Tino Livramento Newcastle United Activo 170 / 164 40% 2 08.01.2029 -
Murillo Nottingham Forest Activo 161 / 160 40% 1 08.01.2029 -
Lewis Hall Newcastle United Activo 158 / 152 40% 2 07.01.2029 -
Miloš Kerkez Liverpool Activo 165 / 174 40% 2 07.01.2029 -
Yehor Yarmoliuk Brentford Activo 162 / 153 40% 1 06.01.2029 -
Adam Wharton Crystal Palace Activo 169 / 173 40% 1 06.01.2029 -
Ousmane Diomande Leeds United Activo 163 / 155 40% 1 06.01.2029 -
Enzo Fernández Chelsea Activo 174 / 177 40% 1 04.01.2029 -
Ryan Gravenberch Liverpool Activo 169 / 162 40% 1 04.01.2029 -
Jack Hinshelwood Brighton Activo 158 / 165 40% 2 02.01.2029 -
Kenneth Taylor Udinese Activo 158 / 147 40% 1 02.01.2029 -
James Trafford Leeds United Activo 160 / 159 40% 26 01.01.2029 -
Juan David Arizala Udinese Activo 133 / 131 76% 1 01.01.2029 Aprobar
Filippo Scotti AC Milan Activo 107 / 108 40% 2 28.08.2028 -
Jorrel Hato Chelsea Activo 152 / 164 40% 3 26.08.2028 -
Jérémy Jacquet Blackburn Rovers Activo 151 / 147 40% 1 26.08.2028 -
Dastan Sätpayev Chelsea Activo 141 / 141 40% 2 14.08.2028 -
Luca Williams-Barnett Tottenham Activo 127 / 142 40% 3 14.08.2028 -
Quentin Ndjantou Paris Saint-Germain Activo 129 / 134 40% 1 14.08.2028 -
Caleb Yirenkyi Coventry City Activo 147 / 150 40% 1 07.08.2028 -
Darryl Bakola Sassuolo Activo 119 / 127 40% 2 02.08.2028 -
Miguel Figueiredo Benfica Activo 120 / 124 40% 5 01.08.2028 -
Josh King Fulham Activo 149 / 144 40% 5 01.08.2028 -
Rafael Mota Sporting CP Activo 116 / 130 40% 3 01.08.2028 -
Jorthy Mokio Ajax Activo 140 / 145 40% 5 31.07.2028 -
Rhys Chadwick Peterborough United Activo 105 / 119 40% 1 31.07.2028 -
Harry Amass Manchester United Activo 146 / 141 40% 2 30.07.2028 -
Sergio Martínez Valladolid Activo 119 / 119 40% 1 30.07.2028 -
Abubacarr Sedi Kinteh Al-Khaleej Activo 138 / 138 40% 3 29.07.2028 -
Harrison Armstrong Bournemouth Activo 136 / 147 40% 1 29.07.2028 -
Sascha Britschgi Udinese Activo 121 / 134 40% 2 26.07.2028 -
Matías Magdaleno Estudiantes Activo 110 / 110 40% 1 26.07.2028 -
Bernardo Lima Porto Activo 117 / 127 40% 4 24.07.2028 -
Fabio Rispoli Como Activo 127 / 119 40% 1 24.07.2028 -
Kai Andrews Leeds United Activo 116 / 132 40% 2 20.07.2028 -
Joane Gadou Borussia Dortmund Activo 138 / 149 40% 1 20.07.2028 -
Agustín Medina River Plate Activo 114 / 124 40% 3 19.07.2028 -
Ayyoub Bouaddi West Bromwich Albion Activo 148 / 157 40% 1 19.07.2028 -
Josh Stephenson Bristol City Activo 116 / 134 40% 1 16.07.2028 -
Adem Avdić TSC Activo 104 / 120 40% 1 15.07.2028 -
Zahir Ibarra Eibar Activo 106 / 106 40% 3 11.07.2028 -
Trey Nyoni Liverpool Activo 144 / 149 40% 2 07.07.2028 -
Giovanni Leoni Liverpool Activo 140 / 150 40% 1 07.07.2028 -
Thijs Kraaijeveld Feyenoord Activo 122 / 120 40% 1 06.07.2028 -
Daniel Banjaqui Benfica Activo 125 / 122 40% 3 05.07.2028 -
Ayden Heaven Manchester United Activo 151 / 156 40% 2 01.07.2028 -
Elvis van der Laan Groningen Activo 110 / 123 40% 1 01.07.2028 -
Lovre Kulušić Dinamo Zagreb Activo 107 / 126 40% 2 27.06.2028 -
George Ilenikhena Al-Ittihad Activo 135 / 120 40% 1 27.06.2028 -
Mattia Mannini Juve Stabia Activo 123 / 117 40% 3 26.06.2028 -
Julian Hall Austin FC Activo 101 / 105 40% 3 24.06.2028 -
Shane Nti Chesterfield Activo 109 / 112 40% 1 24.06.2028 -
Babis Kostoulas Manchester City Activo 145 / 151 40% 2 23.06.2028 -
Rémi Himbert OGC Nice Activo 114 / 125 40% 3 22.06.2028 -
Nicolas Verkooijen PSV Activo 119 / 116 40% 2 21.06.2028 -
Mohamed Meïté Tottenham Activo 131 / 148 40% 3 20.06.2028 -
Matías Acevedo Racing Club Activo 113 / 130 40% 2 14.06.2028 -
Bento Al-Nassr Activo 147 / 160 40% 4 05.06.2028 -
Otto Stange Hamburger SV Activo 129 / 131 40% 1 05.06.2028 -
Arijanet Murić Sassuolo Activo 146 / 154 40% 3 04.06.2028 -
Maduka Okoye Udinese Activo 147 / 146 40% 1 04.06.2028 -
Jamie Cumming Sunderland Activo 137 / 139 40% 1 04.06.2028 -
Aaron Ramsdale Southampton Activo 154 / 157 40% 1 02.06.2028 -
Juan Giménez Rosario Central Activo 123 / 128 40% 1 31.01.2028 -
Felipe Obradovich Gimnasia La Plata Activo 101 / 126 40% 2 30.01.2028 -
Matvey Bardachev Zenit Activo 101 / 108 40% 1 30.01.2028 -
Juan Manuel Villalba Estudiantes Activo 115 / 123 40% 1 28.01.2028 -
Sergiu Perciun Torino Activo 106 / 114 40% 1 21.01.2028 -
André Fluminense Activo 124 / 134 40% 1 19.01.2028 -
Luighi Palmeiras Activo 106 / 105 40% 1 03.01.2028 -
Rayan Bournemouth Activo 145 / 154 40% 2 30.08.2027 -
Andrea Colpani Monza Activo 145 / 132 72% 1 30.08.2027 Aprobar
Sidiki Chérif Coventry City Activo 128 / 141 40% 1 30.08.2027 -
Miloš Luković RC Strasbourg Activo 126 / 131 40% 1 30.08.2027 -
Jeff Ekhator Juventus Activo 133 / 132 40% 1 29.08.2027 -
Michael Cooper Sheffield United Activo 134 / 138 40% 15 27.08.2027 -
Jakub Stolarczyk Tottenham Activo 146 / 133 40% 1 27.08.2027 -
Giorgi Mamardashvili Liverpool Activo 160 / 176 40% 1 27.08.2027 -
Damola Ajayi Tottenham Activo 114 / 126 40% 2 26.08.2027 -
Dilan Godoy Vélez Activo 110 / 107 40% 1 26.08.2027 -
Serge Daura Auckland City Activo 112 / 114 40% 1 26.08.2027 -
Keita Kosugi Eintracht Frankfurt Activo 125 / 127 40% 1 22.08.2027 -
Anthony Patterson Wrexham Activo 134 / 138 40% 16 21.08.2027 -
Marco Carnesecchi Atalanta Activo 160 / 175 40% 1 21.08.2027 -
Daniel Peretz Bayern Munich Activo 136 / 132 40% 1 21.08.2027 -
Alessandro Romano AS Roma Activo 108 / 109 40% 1 18.08.2027 -
Kike Pérez Venezia Activo 138 / 129 72% 1 09.08.2027 Aprobar
Lautaro Morales Lanús Activo 126 / 129 40% 2 07.08.2027 -
Alexis Fretes Libertad Activo 111 / 106 40% 1 07.08.2027 -
Yusuf Akçiçek Al-Hilal Activo 139 / 153 40% 1 07.08.2027 -
Fellipe Jack Como Activo 117 / 108 40% 2 06.08.2027 -
Ander Astralaga Betis Activo 127 / 136 40% 1 02.07.2027 -
Josh Nichols Arsenal Activo 109 / 129 40% 1 21.06.2027 -
Radek Vítek Middlesbrough Activo 140 / 145 40% 6 28.01.2027 -
Dmytro Riznyk Shakhtar Activo 147 / 132 40% 7 22.01.2027 -
Dean Henderson Crystal Palace Activo 150 / 138 40% 1 11.01.2027 -
Christian Walton Ipswich Town Activo 137 / 119 40% 1 11.01.2027 -
Keisuke Osako Sanfrecce Hiroshima Activo 135 / 126 40% 1 29.08.2026 -
Yehvann Diouf OGC Nice Activo 141 / 145 40% 1 21.08.2026 -
Leon Bailey Aston Villa Activo 139 / 133 40% 1 03.08.2026 -
Karl Hein Werder Bremen Activo 126 / 125 40% 1 02.08.2026 -